Time;durP1;ratioP1;P1;durP2;ratioP2;P2;SDS_P1;SDS_P2;PMS_P1;PMS_P2;Temp;Humidity;BMP_temperature;BMP_pressure;BME280_temperature;BME280_humidity;BME280_pressure;Samples;Min_cycle;Max_cycle;Signal;HPM_P1;HPM_P2
2021/05/04 00:00:13;;;;;;;14.93;12.40;;;9.60;99.90;;;;;;1867505;77;21113;-76
2021/05/04 00:02:41;;;;;;;18.05;13.22;;;9.70;99.90;;;;;;1867889;75;21396;-76
2021/05/04 00:05:08;;;;;;;14.63;13.13;;;9.60;99.90;;;;;;1861936;77;21098;-76
2021/05/04 00:07:36;;;;;;;16.30;12.70;;;9.70;99.90;;;;;;1867950;77;21054;-76
2021/05/04 00:10:04;;;;;;;14.68;12.70;;;9.70;99.90;;;;;;1867685;77;21172;-76
2021/05/04 00:12:31;;;;;;;14.85;12.60;;;9.70;99.90;;;;;;1864246;77;21122;-76
2021/05/04 00:14:59;;;;;;;14.23;12.65;;;9.60;99.90;;;;;;1863082;77;21360;-76
2021/05/04 00:17:27;;;;;;;17.32;11.43;;;9.60;99.90;;;;;;1851301;77;21188;-76
2021/05/04 00:19:54;;;;;;;17.10;12.60;;;9.60;99.90;;;;;;1862643;77;21032;-76
2021/05/04 00:22:22;;;;;;;14.23;12.15;;;9.60;99.90;;;;;;1862270;75;21770;-76
2021/05/04 00:24:49;;;;;;;16.77;10.68;;;9.60;99.90;;;;;;1866282;77;21110;-76
2021/05/04 00:27:17;;;;;;;13.45;11.57;;;9.60;99.90;;;;;;1853138;77;21164;-76
2021/05/04 00:29:44;;;;;;;13.00;11.60;;;9.60;99.90;;;;;;1867685;77;21658;-76
2021/05/04 00:32:12;;;;;;;13.62;11.22;;;9.60;99.90;;;;;;1865080;76;22471;-76
2021/05/04 00:34:39;;;;;;;14.15;11.30;;;9.60;99.90;;;;;;1860833;76;21121;-76
2021/05/04 00:37:07;;;;;;;13.75;11.20;;;9.60;99.90;;;;;;1865361;77;21067;-76
2021/05/04 00:39:36;;;;;;;12.45;10.93;;;9.60;99.90;;;;;;1860015;77;21187;-76
2021/05/04 00:42:04;;;;;;;11.85;10.65;;;9.70;99.90;;;;;;1867802;77;21220;-76
2021/05/04 00:44:33;;;;;;;11.55;9.68;;;9.60;99.90;;;;;;1862334;77;21161;-76
2021/05/04 00:47:00;;;;;;;13.08;9.68;;;9.60;99.90;;;;;;1868355;76;21126;-76
2021/05/04 00:49:28;;;;;;;11.70;9.40;;;9.70;99.90;;;;;;1863009;77;21097;-76
2021/05/04 00:51:55;;;;;;;14.25;9.03;;;9.70;99.90;;;;;;1858520;77;21957;-77
2021/05/04 00:54:24;;;;;;;9.93;8.93;;;9.70;99.90;;;;;;1865640;77;21094;-76
2021/05/04 00:56:54;;;;;;;15.93;9.73;;;9.70;99.90;;;;;;1860253;77;21119;-76
2021/05/04 00:59:24;;;;;;;11.08;9.58;;;9.70;99.90;;;;;;1861738;75;21126;-76
2021/05/04 01:01:53;;;;;;;10.98;8.80;;;9.70;99.90;;;;;;1865821;77;21059;-75
2021/05/04 01:04:21;;;;;;;10.35;8.85;;;9.90;99.90;;;;;;1866602;75;21086;-75
2021/05/04 01:06:50;;;;;;;13.60;9.15;;;9.80;99.90;;;;;;1868435;77;21474;-76
2021/05/04 01:09:19;;;;;;;10.10;8.30;;;9.80;99.90;;;;;;1866685;77;21086;-75
2021/05/04 01:11:47;;;;;;;10.35;8.18;;;9.90;99.90;;;;;;1863069;76;21116;-76
2021/05/04 01:14:15;;;;;;;11.35;8.50;;;10.00;99.90;;;;;;1854797;77;21121;-75
2021/05/04 01:16:49;;;;;;;10.28;8.10;;;9.80;99.90;;;;;;1857459;77;21110;-75
2021/05/04 01:19:14;;;;;;;10.93;7.92;;;9.80;99.90;;;;;;1866036;77;21600;-76
2021/05/04 01:21:41;;;;;;;8.88;7.95;;;9.80;99.90;;;;;;1867766;75;21173;-76
2021/05/04 01:24:10;;;;;;;8.20;7.08;;;9.90;99.90;;;;;;1864578;77;21067;-76
2021/05/04 01:26:39;;;;;;;10.93;7.33;;;10.00;99.90;;;;;;1861689;77;21187;-75
2021/05/04 01:29:06;;;;;;;8.10;6.65;;;10.00;99.90;;;;;;1858894;76;21808;-75
2021/05/04 01:31:34;;;;;;;11.65;6.72;;;10.10;99.90;;;;;;1864221;76;21028;-76
2021/05/04 01:34:02;;;;;;;8.28;6.37;;;10.10;99.90;;;;;;1862067;76;21035;-75
2021/05/04 01:36:29;;;;;;;7.10;6.12;;;10.20;99.90;;;;;;1855390;77;21086;-75
2021/05/04 01:38:57;;;;;;;7.85;6.55;;;10.20;99.90;;;;;;1857097;77;21160;-76
2021/05/04 01:41:24;;;;;;;12.10;6.10;;;10.20;99.90;;;;;;1858845;77;21160;-75
2021/05/04 01:43:52;;;;;;;10.03;6.58;;;10.20;99.90;;;;;;1854176;77;21167;-75
2021/05/04 01:46:19;;;;;;;12.28;6.80;;;10.20;99.90;;;;;;1864849;76;21118;-75
2021/05/04 01:48:47;;;;;;;6.67;5.58;;;10.30;99.90;;;;;;1862201;77;21098;-75
2021/05/04 01:51:14;;;;;;;7.42;5.90;;;10.30;99.90;;;;;;1869593;76;21075;-75
2021/05/04 01:53:42;;;;;;;7.30;5.97;;;10.40;99.90;;;;;;1864780;77;21576;-75
2021/05/04 01:56:09;;;;;;;6.70;5.75;;;10.40;99.90;;;;;;1857706;77;21137;-76
2021/05/04 01:58:37;;;;;;;9.13;5.87;;;10.30;99.90;;;;;;1865367;76;21211;-76
2021/05/04 02:01:04;;;;;;;7.85;5.33;;;10.40;99.90;;;;;;1861832;77;21125;-75
2021/05/04 02:03:32;;;;;;;7.03;5.28;;;10.50;99.90;;;;;;1864138;75;21115;-76
2021/05/04 02:05:59;;;;;;;7.75;5.25;;;10.50;99.90;;;;;;1868354;77;21188;-75
2021/05/04 02:08:27;;;;;;;8.78;5.42;;;10.50;99.90;;;;;;1857376;77;21102;-76
2021/05/04 02:10:54;;;;;;;7.30;4.80;;;10.50;99.90;;;;;;1866600;77;21118;-76
2021/05/04 02:13:23;;;;;;;7.53;4.92;;;10.50;99.90;;;;;;1865965;75;21596;-76
2021/05/04 02:15:52;;;;;;;7.70;5.33;;;10.60;99.90;;;;;;1867350;77;21103;-76
2021/05/04 02:18:19;;;;;;;7.17;4.70;;;10.60;99.90;;;;;;1860512;77;21565;-76
2021/05/04 02:20:47;;;;;;;7.08;5.22;;;10.50;99.90;;;;;;1861838;77;21114;-76
2021/05/04 02:23:14;;;;;;;7.17;4.72;;;10.40;99.90;;;;;;1860862;75;21516;-76
2021/05/04 02:25:42;;;;;;;7.28;4.62;;;10.40;99.90;;;;;;1855918;76;21031;-76
2021/05/04 02:28:09;;;;;;;7.78;5.15;;;10.50;99.90;;;;;;1858129;77;21102;-76
2021/05/04 02:30:37;;;;;;;6.92;4.97;;;10.50;99.90;;;;;;1868065;77;21094;-75
2021/05/04 02:33:04;;;;;;;6.72;4.85;;;10.50;99.90;;;;;;1867957;76;21102;-76
2021/05/04 02:35:32;;;;;;;8.25;5.70;;;10.50;99.90;;;;;;1863872;77;21023;-76
2021/05/04 02:37:59;;;;;;;5.08;4.55;;;10.50;99.90;;;;;;1860648;77;21106;-76
2021/05/04 02:40:27;;;;;;;7.47;4.72;;;10.60;99.90;;;;;;1867550;77;21651;-76
2021/05/04 02:42:54;;;;;;;7.67;5.03;;;10.50;99.90;;;;;;1865257;72;21208;-69
2021/05/04 02:45:22;;;;;;;5.37;4.03;;;10.60;99.90;;;;;;1845953;76;21117;-70
2021/05/04 02:47:49;;;;;;;7.20;4.47;;;10.60;99.90;;;;;;1836421;76;21175;-69
2021/05/04 02:50:17;;;;;;;5.50;4.35;;;10.60;99.90;;;;;;1869425;76;21078;-70
2021/05/04 02:52:44;;;;;;;6.10;3.87;;;10.70;99.90;;;;;;1846112;76;21193;-69
2021/05/04 02:55:14;;;;;;;7.90;4.60;;;10.80;99.90;;;;;;1842313;76;21110;-70
2021/05/04 02:57:41;;;;;;;10.38;4.25;;;10.90;99.90;;;;;;1847659;76;21556;-70
2021/05/04 03:00:09;;;;;;;7.83;4.50;;;10.90;99.90;;;;;;1861884;76;21071;-70
2021/05/04 03:02:37;;;;;;;5.80;3.77;;;11.00;99.90;;;;;;1849104;76;21106;-70
2021/05/04 03:05:04;;;;;;;12.40;4.00;;;11.00;99.90;;;;;;1832607;76;21023;-69
2021/05/04 03:07:32;;;;;;;7.80;3.58;;;11.10;99.90;;;;;;1868613;76;21117;-70
2021/05/04 03:09:59;;;;;;;4.37;3.12;;;11.10;99.90;;;;;;1839029;77;21094;-70
2021/05/04 03:12:27;;;;;;;4.42;3.00;;;11.20;99.90;;;;;;1854391;76;21148;-69
2021/05/04 03:14:54;;;;;;;4.62;3.35;;;11.30;99.90;;;;;;1872272;76;21164;-70
2021/05/04 03:17:22;;;;;;;4.55;3.00;;;11.40;99.90;;;;;;1883032;76;21101;-70
2021/05/04 03:19:49;;;;;;;6.65;3.30;;;11.50;99.90;;;;;;1856013;76;21067;-70
2021/05/04 03:22:17;;;;;;;4.17;2.70;;;11.60;99.90;;;;;;1855642;76;21096;-69
2021/05/04 03:24:45;;;;;;;4.47;3.17;;;11.60;99.90;;;;;;1882173;76;21046;-69
2021/05/04 03:27:12;;;;;;;15.68;3.35;;;11.60;99.90;;;;;;1854561;76;21175;-69
2021/05/04 03:29:40;;;;;;;10.08;3.20;;;11.50;99.90;;;;;;1853192;76;21113;-70
2021/05/04 03:32:07;;;;;;;13.05;3.58;;;11.50;99.90;;;;;;1860085;76;21090;-70
2021/05/04 03:34:35;;;;;;;10.43;3.50;;;11.40;99.90;;;;;;1858639;76;21169;-70
2021/05/04 03:37:02;;;;;;;5.20;3.10;;;11.30;99.90;;;;;;1867342;76;21102;-69
2021/05/04 03:39:30;;;;;;;9.50;3.33;;;11.20;99.90;;;;;;1853327;76;21093;-70
2021/05/04 03:41:57;;;;;;;11.53;3.75;;;11.10;99.90;;;;;;1839966;76;21155;-70
2021/05/04 03:44:25;;;;;;;9.60;3.35;;;11.00;99.90;;;;;;1850207;76;21149;-70
2021/05/04 03:46:52;;;;;;;14.80;3.75;;;11.00;99.90;;;;;;1845982;76;21630;-69
2021/05/04 03:49:20;;;;;;;5.45;3.77;;;10.90;99.90;;;;;;1842622;76;21114;-70
2021/05/04 03:51:47;;;;;;;6.08;3.47;;;10.80;99.90;;;;;;1845613;76;21020;-69
2021/05/04 03:54:15;;;;;;;11.95;3.75;;;10.70;99.90;;;;;;1868998;76;21118;-70
2021/05/04 03:56:42;;;;;;;10.32;3.65;;;10.60;99.90;;;;;;1875225;76;21168;-70
2021/05/04 03:59:10;;;;;;;9.70;4.12;;;10.60;99.90;;;;;;1883237;76;21163;-69
2021/05/04 04:01:37;;;;;;;6.67;4.08;;;10.60;99.90;;;;;;1877373;76;21517;-69
2021/05/04 04:04:05;;;;;;;9.60;3.67;;;10.50;99.90;;;;;;1864265;76;21133;-69
2021/05/04 04:06:32;;;;;;;11.55;4.20;;;10.40;99.90;;;;;;1839661;76;22646;-69
2021/05/04 04:09:00;;;;;;;7.03;4.08;;;10.40;99.90;;;;;;1865087;75;21082;-69
2021/05/04 04:11:27;;;;;;;7.08;4.20;;;10.30;99.90;;;;;;1839507;76;21070;-68
2021/05/04 04:13:55;;;;;;;9.83;4.22;;;10.30;99.90;;;;;;1858209;76;21115;-69
2021/05/04 04:16:22;;;;;;;6.78;4.35;;;10.30;99.90;;;;;;1857065;76;21171;-70
2021/05/04 04:18:50;;;;;;;8.33;3.87;;;10.20;99.90;;;;;;1849348;75;21118;-68
2021/05/04 04:21:18;;;;;;;12.15;3.98;;;10.20;99.90;;;;;;1837032;76;21110;-69
2021/05/04 04:23:45;;;;;;;12.58;4.00;;;10.20;99.90;;;;;;1856040;76;21207;-69
2021/05/04 04:26:13;;;;;;;11.55;4.10;;;10.10;99.90;;;;;;1857314;76;21517;-69
2021/05/04 04:28:40;;;;;;;5.37;4.03;;;10.10;99.90;;;;;;1847060;76;21612;-69
2021/05/04 04:31:08;;;;;;;9.65;4.53;;;10.10;99.90;;;;;;1842249;76;21151;-68
2021/05/04 04:33:35;;;;;;;11.75;4.08;;;10.00;99.90;;;;;;1838918;76;21130;-68
2021/05/04 04:36:03;;;;;;;7.50;4.17;;;10.00;99.90;;;;;;1842272;76;21102;-69
2021/05/04 04:38:30;;;;;;;14.80;4.30;;;10.10;99.90;;;;;;1856762;76;21181;-69
2021/05/04 04:40:58;;;;;;;9.38;4.60;;;10.10;99.90;;;;;;1852187;76;21107;-69
2021/05/04 04:43:25;;;;;;;8.58;4.83;;;10.10;99.90;;;;;;1843920;76;21135;-69
2021/05/04 04:45:53;;;;;;;7.75;4.50;;;10.00;99.90;;;;;;1852363;76;21151;-68
2021/05/04 04:48:20;;;;;;;9.10;4.70;;;10.00;99.90;;;;;;1851084;76;21101;-68
2021/05/04 04:50:48;;;;;;;8.93;4.45;;;10.00;99.90;;;;;;1858668;76;21097;-69
2021/05/04 04:53:15;;;;;;;10.00;4.72;;;10.00;99.90;;;;;;1838789;76;21062;-69
2021/05/04 04:55:43;;;;;;;13.08;4.53;;;9.90;99.90;;;;;;1841475;76;21112;-70
2021/05/04 04:58:10;;;;;;;8.88;4.72;;;9.90;99.90;;;;;;1879568;76;21160;-70
2021/05/04 05:00:38;;;;;;;8.30;4.45;;;9.90;99.90;;;;;;1852486;76;21074;-68
2021/05/04 05:03:05;;;;;;;9.60;5.03;;;9.90;99.90;;;;;;1852340;76;22551;-70
2021/05/04 05:05:33;;;;;;;9.53;4.50;;;9.90;99.90;;;;;;1845022;76;21109;-70
2021/05/04 05:08:00;;;;;;;10.90;4.85;;;10.00;99.90;;;;;;1840578;75;21501;-71
2021/05/04 05:10:28;;;;;;;6.90;4.58;;;9.90;99.90;;;;;;1834858;76;21055;-70
2021/05/04 05:12:56;;;;;;;10.32;4.70;;;9.90;99.90;;;;;;1869937;76;21157;-71
2021/05/04 05:15:23;;;;;;;9.65;4.95;;;9.90;99.90;;;;;;1879381;76;21606;-72
2021/05/04 05:17:51;;;;;;;12.37;4.55;;;9.90;99.90;;;;;;1854590;76;21086;-71
2021/05/04 05:20:19;;;;;;;7.90;4.37;;;9.90;99.90;;;;;;1877344;76;21070;-71
2021/05/04 05:22:47;;;;;;;6.97;4.40;;;9.90;99.90;;;;;;1861155;76;21195;-73
2021/05/04 05:25:14;;;;;;;7.62;4.05;;;9.90;99.90;;;;;;1881299;76;21102;-71
2021/05/04 05:27:42;;;;;;;10.60;3.67;;;9.80;99.90;;;;;;1848974;76;21593;-70
2021/05/04 05:30:10;;;;;;;14.75;4.30;;;9.80;99.90;;;;;;1861367;76;21107;-70
2021/05/04 05:32:38;;;;;;;6.42;3.50;;;9.80;99.90;;;;;;1854714;76;21535;-70
2021/05/04 05:35:05;;;;;;;7.30;3.62;;;9.80;99.90;;;;;;1854113;76;21611;-69
2021/05/04 05:37:33;;;;;;;6.25;3.67;;;9.90;99.90;;;;;;1842783;76;21207;-69
2021/05/04 05:40:00;;;;;;;10.05;3.77;;;9.80;99.90;;;;;;1842727;76;21584;-69
2021/05/04 05:42:28;;;;;;;6.53;3.58;;;9.90;99.90;;;;;;1840109;76;21241;-71
2021/05/04 05:44:55;;;;;;;8.60;3.60;;;9.80;99.90;;;;;;1864748;75;21145;-72
2021/05/04 05:47:23;;;;;;;7.60;3.47;;;9.80;99.90;;;;;;1858580;76;21106;-72
2021/05/04 05:49:50;;;;;;;8.48;3.50;;;9.80;99.90;;;;;;1870444;76;21149;-72
2021/05/04 05:52:18;;;;;;;12.90;3.00;;;9.90;99.90;;;;;;1859166;76;21605;-72
2021/05/04 05:54:45;;;;;;;15.48;3.10;;;9.80;99.90;;;;;;1858103;76;21071;-72
2021/05/04 05:57:13;;;;;;;8.73;3.00;;;9.90;99.90;;;;;;1846979;76;21168;-72
2021/05/04 05:59:40;;;;;;;8.93;3.20;;;10.00;99.90;;;;;;1868711;76;21093;-70
2021/05/04 06:02:08;;;;;;;6.50;2.50;;;10.00;99.90;;;;;;1853411;76;21646;-71
2021/05/04 06:04:36;;;;;;;5.53;2.70;;;10.10;99.90;;;;;;1851198;76;21576;-72
2021/05/04 06:07:03;;;;;;;9.65;2.75;;;10.10;99.90;;;;;;1839500;76;21568;-71
2021/05/04 06:09:31;;;;;;;5.87;2.95;;;10.10;99.90;;;;;;1834628;76;21113;-70
2021/05/04 06:11:58;;;;;;;5.30;3.08;;;10.20;99.90;;;;;;1840022;76;21086;-72
2021/05/04 06:14:26;;;;;;;9.43;2.67;;;10.20;99.90;;;;;;1842985;76;21134;-71
2021/05/04 06:16:53;;;;;;;5.87;2.35;;;10.20;99.90;;;;;;1847570;76;21152;-70
2021/05/04 06:19:21;;;;;;;5.28;3.02;;;10.20;99.90;;;;;;1848774;76;21152;-70
2021/05/04 06:21:49;;;;;;;10.08;3.02;;;10.20;99.90;;;;;;1852097;76;21185;-68
2021/05/04 06:24:16;;;;;;;6.45;2.72;;;10.10;99.90;;;;;;1843925;76;21134;-71
2021/05/04 06:26:44;;;;;;;7.50;2.52;;;10.20;99.90;;;;;;1844266;76;21118;-75
2021/05/04 06:29:11;;;;;;;6.70;2.95;;;10.30;99.90;;;;;;1853421;76;21098;-73
2021/05/04 06:31:39;;;;;;;8.38;2.95;;;10.20;99.90;;;;;;1852381;76;21106;-74
2021/05/04 06:34:09;;;;;;;5.83;2.95;;;10.20;99.90;;;;;;1848835;76;21662;-74
2021/05/04 06:36:36;;;;;;;5.40;2.45;;;10.20;99.90;;;;;;1849565;76;21183;-75
2021/05/04 06:39:04;;;;;;;11.88;3.10;;;10.20;99.90;;;;;;1858601;76;21106;-74
2021/05/04 06:41:35;;;;;;;9.33;3.05;;;10.20;99.90;;;;;;1838215;76;21702;-75
2021/05/04 06:44:02;;;;;;;8.15;3.08;;;10.30;99.90;;;;;;1848041;76;21071;-70
2021/05/04 06:46:29;;;;;;;10.03;2.65;;;10.30;99.90;;;;;;1840060;76;21215;-69
2021/05/04 06:48:57;;;;;;;5.08;2.80;;;10.40;99.90;;;;;;1842595;76;21047;-69
2021/05/04 06:51:25;;;;;;;6.20;2.72;;;10.40;99.90;;;;;;1838327;76;21046;-69
2021/05/04 06:53:53;;;;;;;7.78;3.30;;;10.50;99.90;;;;;;1841510;76;21203;-70
2021/05/04 06:56:20;;;;;;;5.03;2.95;;;10.50;99.90;;;;;;1846430;76;21573;-70
2021/05/04 06:58:48;;;;;;;9.13;2.83;;;10.40;99.90;;;;;;1864864;76;21079;-69
2021/05/04 07:01:16;;;;;;;7.30;2.80;;;10.30;99.90;;;;;;1849528;76;21129;-70
2021/05/04 07:03:44;;;;;;;10.20;2.80;;;10.30;99.90;;;;;;1852573;76;21079;-70
2021/05/04 07:06:11;;;;;;;4.42;3.00;;;10.20;99.90;;;;;;1857573;76;21079;-71
2021/05/04 07:08:39;;;;;;;4.92;3.58;;;10.20;99.90;;;;;;1861876;76;21539;-69
2021/05/04 07:11:06;;;;;;;5.75;3.42;;;10.20;99.90;;;;;;1844383;76;21557;-70
2021/05/04 07:13:34;;;;;;;3.75;3.15;;;10.20;99.90;;;;;;1858487;76;21207;-69
2021/05/04 07:16:01;;;;;;;5.85;3.52;;;10.00;99.90;;;;;;1841819;76;21035;-70
2021/05/04 07:18:29;;;;;;;7.67;3.60;;;10.00;99.90;;;;;;1855987;76;21113;-70
2021/05/04 07:20:56;;;;;;;4.95;3.27;;;10.00;99.90;;;;;;1864219;76;21142;-68
2021/05/04 07:23:24;;;;;;;7.00;3.72;;;10.00;99.90;;;;;;1859192;76;21243;-69
2021/05/04 07:25:51;;;;;;;3.90;3.50;;;10.00;99.90;;;;;;1853788;76;21101;-70
2021/05/04 07:28:19;;;;;;;5.35;3.37;;;10.00;99.90;;;;;;1858768;76;22539;-69
2021/05/04 07:30:47;;;;;;;7.05;3.30;;;10.00;99.90;;;;;;1842582;76;21121;-69
2021/05/04 07:33:14;;;;;;;5.80;3.20;;;10.00;99.90;;;;;;1842056;76;21133;-69
2021/05/04 07:35:41;;;;;;;6.58;3.02;;;10.00;99.90;;;;;;1837116;76;21163;-69
2021/05/04 07:38:09;;;;;;;7.17;2.87;;;10.10;99.90;;;;;;1831223;76;21079;-70
2021/05/04 07:40:37;;;;;;;3.47;2.72;;;10.30;99.90;;;;;;1855766;76;21597;-70
2021/05/04 07:43:05;;;;;;;8.73;2.92;;;10.30;99.90;;;;;;1845815;76;21157;-70
2021/05/04 07:45:33;;;;;;;5.60;2.98;;;10.40;99.90;;;;;;1835090;76;21149;-70
2021/05/04 07:48:03;;;;;;;4.05;2.85;;;10.50;99.90;;;;;;1852181;76;21117;-69
2021/05/04 07:50:32;;;;;;;7.60;3.30;;;10.50;99.90;;;;;;1847438;76;21172;-70
2021/05/04 07:53:00;;;;;;;7.50;3.30;;;10.40;99.90;;;;;;1831504;77;21139;-69
2021/05/04 07:55:28;;;;;;;5.62;3.17;;;10.50;99.90;;;;;;1845869;76;21099;-69
2021/05/04 07:57:56;;;;;;;5.25;3.80;;;10.50;99.90;;;;;;1848867;76;21106;-69
2021/05/04 08:00:23;;;;;;;5.33;3.65;;;10.40;99.90;;;;;;1838286;76;21114;-70
2021/05/04 08:02:51;;;;;;;10.30;3.90;;;10.40;99.90;;;;;;1839798;76;21138;-70
2021/05/04 08:05:19;;;;;;;6.92;3.83;;;10.40;99.90;;;;;;1862806;76;21243;-69
2021/05/04 08:07:46;;;;;;;9.35;4.45;;;10.30;99.90;;;;;;1837662;76;21110;-69
2021/05/04 08:10:14;;;;;;;8.65;4.35;;;10.30;99.90;;;;;;1837101;76;21110;-70
2021/05/04 08:12:41;;;;;;;7.25;4.78;;;10.30;99.90;;;;;;1841662;76;21142;-70
2021/05/04 08:15:16;;;;;;;7.67;4.95;;;10.30;99.90;;;;;;1846713;76;21095;-70
2021/05/04 08:17:40;;;;;;;5.72;3.75;;;10.30;99.90;;;;;;1846328;76;21165;-70
2021/05/04 08:20:08;;;;;;;7.87;4.28;;;10.20;99.90;;;;;;1854253;76;21598;-70
2021/05/04 08:22:36;;;;;;;6.53;4.83;;;10.20;99.90;;;;;;1848249;76;21142;-71
2021/05/04 08:25:06;;;;;;;5.72;4.20;;;10.20;99.90;;;;;;1858961;76;21104;-69
2021/05/04 08:27:33;;;;;;;6.80;3.90;;;10.20;99.90;;;;;;1848990;76;21091;-68
2021/05/04 08:30:01;;;;;;;5.08;3.37;;;10.20;99.90;;;;;;1847616;76;21113;-68
2021/05/04 08:32:28;;;;;;;7.03;3.25;;;10.30;99.90;;;;;;1853166;76;22347;-68
2021/05/04 08:34:56;;;;;;;7.35;2.77;;;10.20;99.90;;;;;;1860712;76;21183;-68
2021/05/04 08:37:23;;;;;;;7.70;2.80;;;10.30;99.90;;;;;;1861445;76;21070;-69
2021/05/04 08:39:51;;;;;;;4.17;2.60;;;10.30;99.90;;;;;;1850341;76;21027;-68
2021/05/04 08:42:18;;;;;;;3.90;2.20;;;10.30;99.90;;;;;;1846348;76;21110;-68
2021/05/04 08:44:50;;;;;;;8.35;2.47;;;10.40;99.90;;;;;;1860234;76;21571;-68
2021/05/04 08:47:22;;;;;;;7.28;2.10;;;10.50;99.90;;;;;;1852272;76;21144;-68
2021/05/04 08:49:50;;;;;;;2.65;2.00;;;10.60;99.90;;;;;;1871287;76;21484;-69
2021/05/04 08:52:18;;;;;;;2.67;1.98;;;10.60;99.90;;;;;;1867251;76;21147;-69
2021/05/04 08:54:46;;;;;;;2.95;1.90;;;10.70;99.90;;;;;;1868218;76;21788;-69
2021/05/04 08:57:14;;;;;;;4.30;2.15;;;10.70;99.90;;;;;;1847434;76;21646;-69
2021/05/04 08:59:42;;;;;;;4.92;2.62;;;10.70;99.90;;;;;;1842514;75;21083;-69
2021/05/04 09:02:09;;;;;;;4.53;2.67;;;10.80;99.90;;;;;;1831614;76;21565;-70
2021/05/04 09:07:19;;;;;;;4.08;2.27;;;10.80;99.90;;;;;;1849270;76;21103;-70
2021/05/04 09:10:24;;;;;;;3.62;2.33;;;10.90;99.90;;;;;;1855900;76;21165;-70
2021/05/04 09:21:16;;;;;;;4.28;2.50;;;10.90;99.90;;;;;;1849404;76;21144;-70
2021/05/04 09:23:44;;;;;;;3.70;2.58;;;10.90;99.90;;;;;;1841790;76;21591;-70
2021/05/04 09:26:19;;;;;;;7.15;2.77;;;10.80;99.90;;;;;;1843255;76;21579;-70
2021/05/04 09:28:54;;;;;;;5.67;3.10;;;10.90;99.90;;;;;;1859017;76;21168;-69
2021/05/04 09:31:23;;;;;;;10.38;3.58;;;11.00;99.90;;;;;;1858593;76;21171;-70
2021/05/04 09:33:51;;;;;;;6.60;3.08;;;10.90;99.90;;;;;;1854468;76;21173;-70
2021/05/04 09:36:44;;;;;;;7.37;3.80;;;11.00;99.90;;;;;;1842809;76;21062;-72
2021/05/04 09:39:15;;;;;;;8.45;3.20;;;10.90;99.90;;;;;;1855227;75;21462;-69
2021/05/04 09:41:42;;;;;;;4.05;3.00;;;10.90;99.90;;;;;;1850454;75;21184;-70
2021/05/04 09:44:10;;;;;;;8.65;3.22;;;11.00;99.90;;;;;;1873646;76;21137;-69
2021/05/04 09:46:50;;;;;;;6.22;3.27;;;11.10;99.90;;;;;;1845504;76;21192;-69
2021/05/04 09:49:32;;;;;;;5.95;3.42;;;11.10;99.90;;;;;;1873255;76;21575;-69
2021/05/04 09:52:44;;;;;;;5.15;3.00;;;11.20;99.90;;;;;;1854644;76;21051;-68
2021/05/04 09:55:11;;;;;;;6.25;2.67;;;11.20;99.90;;;;;;1861864;76;21520;-69
2021/05/04 09:57:43;;;;;;;5.15;2.45;;;11.40;99.90;;;;;;1836954;76;21513;-70
2021/05/04 10:00:16;;;;;;;4.47;2.30;;;11.40;99.90;;;;;;1872904;76;21038;-69
2021/05/04 10:02:48;;;;;;;6.75;2.33;;;11.50;99.90;;;;;;1837263;76;21067;-71
2021/05/04 10:05:20;;;;;;;5.80;2.50;;;11.70;99.90;;;;;;1872455;76;21124;-70
2021/05/04 10:07:48;;;;;;;5.62;2.20;;;12.10;99.90;;;;;;1843316;76;21551;-69
2021/05/04 10:10:17;;;;;;;7.97;2.30;;;12.30;99.90;;;;;;1838485;76;21153;-70
2021/05/04 10:12:46;;;;;;;7.10;2.22;;;12.60;99.90;;;;;;1854355;76;21607;-69
2021/05/04 10:15:15;;;;;;;5.92;2.35;;;12.60;99.90;;;;;;1855047;76;21117;-70
2021/05/04 10:17:43;;;;;;;6.05;1.82;;;12.60;99.90;;;;;;1856825;76;21587;-69
2021/05/04 10:20:18;;;;;;;3.40;1.55;;;12.60;99.90;;;;;;1833321;76;21086;-72
2021/05/04 10:22:42;;;;;;;5.03;1.42;;;12.50;99.90;;;;;;1848875;76;21113;-72
2021/05/04 10:25:16;;;;;;;4.65;1.50;;;12.50;99.90;;;;;;1860498;76;21101;-73
2021/05/04 10:27:44;;;;;;;3.77;1.32;;;12.50;99.90;;;;;;1860992;76;21093;-72
2021/05/04 10:30:13;;;;;;;4.35;1.35;;;12.50;99.90;;;;;;1836325;76;21559;-72
2021/05/04 10:33:00;;;;;;;4.25;1.10;;;12.50;99.90;;;;;;1855162;76;21585;-72
2021/05/04 10:35:34;;;;;;;2.87;1.15;;;12.40;99.90;;;;;;1857555;76;21533;-74
2021/05/04 10:38:04;;;;;;;3.52;1.30;;;12.40;99.90;;;;;;1850976;76;21149;-74
2021/05/04 10:40:36;;;;;;;4.20;1.37;;;12.40;99.90;;;;;;1855430;76;21219;-73
2021/05/04 10:43:24;;;;;;;3.62;1.40;;;12.50;99.90;;;;;;1848324;76;21091;-74
2021/05/04 10:45:53;;;;;;;5.05;1.00;;;12.50;99.90;;;;;;1840417;76;21161;-74
2021/05/04 10:48:48;;;;;;;4.12;1.30;;;12.60;99.90;;;;;;1852553;75;21099;-72
2021/05/04 10:51:19;;;;;;;6.08;1.07;;;12.60;99.90;;;;;;1838960;76;21138;-75
2021/05/04 10:54:01;;;;;;;3.72;1.17;;;12.70;99.90;;;;;;1856821;76;21206;-73
2021/05/04 10:56:35;;;;;;;6.50;1.33;;;13.10;99.90;;;;;;1843818;76;21584;-73
2021/05/04 10:59:04;;;;;;;4.33;1.40;;;13.60;99.90;;;;;;1844586;76;21146;-69
2021/05/04 11:01:32;;;;;;;6.62;1.42;;;13.90;99.90;;;;;;1850652;76;21113;-68
2021/05/04 11:04:01;;;;;;;3.95;1.02;;;14.30;99.90;;;;;;1854640;76;21119;-67
2021/05/04 11:06:31;;;;;;;3.95;1.60;;;14.40;99.90;;;;;;1846312;76;21149;-69
2021/05/04 11:09:08;;;;;;;4.05;1.40;;;14.40;99.90;;;;;;1867108;76;21173;-69
2021/05/04 11:11:41;;;;;;;6.40;1.52;;;14.20;99.90;;;;;;1845760;76;21126;-69
2021/05/04 11:14:20;;;;;;;5.70;1.47;;;14.40;99.90;;;;;;1843000;76;21624;-71
2021/05/04 11:16:56;;;;;;;5.62;1.67;;;14.00;99.90;;;;;;1850363;76;21509;-76
2021/05/04 11:19:33;;;;;;;10.50;1.57;;;13.60;99.90;;;;;;1849303;76;21101;-83
2021/05/04 11:22:08;;;;;;;8.53;1.70;;;13.30;99.90;;;;;;1860366;76;22148;-72
2021/05/04 11:24:34;;;;;;;;;;;13.10;99.90;;;;;;1845688;76;21154;-69
2021/05/04 11:27:16;;;;;;;4.03;1.55;;;13.00;99.90;;;;;;1850503;76;20160;-71
2021/05/04 11:29:45;;;;;;;6.85;2.05;;;13.10;99.90;;;;;;1827101;78;21241;-69
2021/05/04 11:32:21;;;;;;;6.92;2.00;;;13.10;99.90;;;;;;1842078;76;21106;-70
2021/05/04 11:34:54;;;;;;;5.60;1.95;;;13.30;99.90;;;;;;1842784;76;21176;-71
2021/05/04 11:37:28;;;;;;;7.25;2.35;;;13.50;99.90;;;;;;1860605;76;21509;-70
2021/05/04 11:40:01;;;;;;;;;;;13.50;99.90;;;;;;1844518;76;21118;-71
2021/05/04 11:42:38;;;;;;;8.18;2.30;;;13.40;99.90;;;;;;1834699;76;20217;-71
2021/05/04 11:45:14;;;;;;;7.03;1.87;;;13.40;99.90;;;;;;1848661;76;21106;-70
2021/05/04 11:47:52;;;;;;;4.65;1.57;;;13.60;99.90;;;;;;1868702;76;21146;-68
2021/05/04 11:50:23;;;;;;;8.35;2.25;;;13.60;99.90;;;;;;1842519;76;21640;-68
2021/05/04 11:52:56;;;;;;;11.45;2.30;;;13.20;99.90;;;;;;1847755;76;21197;-68
2021/05/04 11:55:29;;;;;;;7.03;2.15;;;13.10;99.90;;;;;;1842810;76;21112;-69
2021/05/04 11:58:02;;;;;;;5.40;1.85;;;13.10;99.90;;;;;;1850383;76;21632;-71
2021/05/04 12:00:33;;;;;;;6.42;2.25;;;13.10;99.90;;;;;;1846009;76;21656;-68
2021/05/04 12:03:11;;;;;;;8.15;2.42;;;13.10;99.90;;;;;;1831495;76;21134;-69
2021/05/04 12:05:41;;;;;;;6.87;2.50;;;13.10;99.90;;;;;;1840575;76;21098;-70
2021/05/04 12:08:09;;;;;;;7.95;2.10;;;13.10;99.90;;;;;;1855249;76;21595;-68
2021/05/04 12:10:50;;;;;;;5.55;1.80;;;13.10;99.90;;;;;;1842377;76;21185;-68
2021/05/04 12:13:19;;;;;;;5.55;2.10;;;13.20;99.90;;;;;;1840917;76;21170;-72
2021/05/04 12:15:48;;;;;;;6.45;2.02;;;13.10;99.90;;;;;;1849298;76;21167;-70
2021/05/04 12:18:18;;;;;;;8.28;2.02;;;13.00;99.90;;;;;;1843770;76;22619;-70
2021/05/04 12:20:54;;;;;;;4.60;1.10;;;13.00;99.90;;;;;;1839161;76;21715;-71
2021/05/04 12:23:36;;;;;;;4.92;1.17;;;12.70;99.90;;;;;;1838911;76;21728;-69
2021/05/04 12:26:09;;;;;;;4.22;0.80;;;12.30;99.90;;;;;;1853048;76;21656;-71
2021/05/04 12:28:51;;;;;;;7.15;1.20;;;11.80;99.90;;;;;;1840419;76;21676;-69
2021/05/04 12:31:24;;;;;;;5.30;1.20;;;11.40;99.90;;;;;;1835000;76;21185;-69
2021/05/04 12:33:53;;;;;;;5.42;1.12;;;11.00;99.90;;;;;;1841740;76;21634;-71
2021/05/04 12:36:50;;;;;;;6.40;0.90;;;10.90;99.90;;;;;;1845236;76;21121;-70
2021/05/04 12:39:24;;;;;;;5.47;1.32;;;10.90;99.90;;;;;;1824698;76;21568;-72
2021/05/04 12:41:53;;;;;;;3.05;0.90;;;11.10;99.90;;;;;;1836198;76;21134;-71
2021/05/04 12:44:28;;;;;;;2.40;1.00;;;11.70;99.90;;;;;;1843610;76;21165;-72
2021/05/04 12:46:59;;;;;;;5.70;1.17;;;12.30;99.90;;;;;;1853182;76;21126;-72
2021/05/04 12:49:35;;;;;;;4.12;0.90;;;12.40;99.90;;;;;;1845178;76;21115;-70
2021/05/04 12:52:18;;;;;;;3.65;0.90;;;12.50;99.90;;;;;;1852865;76;21211;-72
2021/05/04 12:54:45;;;;;;;3.02;1.10;;;12.80;99.90;;;;;;1864915;76;21054;-72
2021/05/04 12:57:26;;;;;;;3.15;1.02;;;13.00;99.90;;;;;;1861866;76;21573;-68
2021/05/04 12:59:56;;;;;;;5.47;1.20;;;13.50;99.90;;;;;;1854015;76;21144;-69
2021/05/04 13:02:26;;;;;;;4.05;1.20;;;13.70;99.90;;;;;;1848089;76;21195;-69
2021/05/04 13:05:00;;;;;;;6.25;1.12;;;13.70;99.90;;;;;;1859695;76;21179;-72
2021/05/04 13:07:40;;;;;;;5.40;1.17;;;13.60;99.90;;;;;;1847311;76;21167;-70